Time;durP1;ratioP1;P1;durP2;ratioP2;P2;SDS_P1;SDS_P2;PMS_P1;PMS_P2;Temp;Humidity;BMP_temperature;BMP_pressure;BME280_temperature;BME280_humidity;BME280_pressure;Samples;Min_cycle;Max_cycle;Signal;HPM_P1;HPM_P2
2024/01/29 00:01:24;;;;;;;;;49.25;40.75;;;;;-146.67;42.08;76279.13;5062418;28;63769;-80
2024/01/29 00:03:49;;;;;;;;;51.50;40.25;;;;;-146.67;42.00;76279.13;5064205;28;62100;-80
2024/01/29 00:06:15;;;;;;;;;51.75;41.25;;;;;-146.67;42.01;76279.13;5064841;28;61980;-80
2024/01/29 00:08:40;;;;;;;;;55.00;42.25;;;;;-146.67;42.07;76285.13;5083463;28;61815;-80
2024/01/29 00:11:05;;;;;;;;;54.50;41.25;;;;;-146.67;42.11;76295.13;5081565;28;62738;-80
2024/01/29 00:13:31;;;;;;;;;52.50;41.00;;;;;-146.67;42.02;76293.13;5080761;28;61887;-80
2024/01/29 00:15:56;;;;;;;;;56.25;44.75;;;;;-146.67;42.01;76299.13;5062304;28;62027;-80
2024/01/29 00:18:22;;;;;;;;;52.75;43.25;;;;;-146.67;42.04;76295.13;5062697;28;61727;-80
2024/01/29 00:20:47;;;;;;;;;48.00;39.00;;;;;-146.67;42.07;76301.09;5080592;28;62148;-80
2024/01/29 00:23:14;;;;;;;;;47.25;40.75;;;;;-146.67;42.02;76303.09;5062498;28;62240;-80
2024/01/29 00:25:39;;;;;;;;;49.25;40.75;;;;;-146.67;42.02;76297.13;5062773;28;62029;-80
2024/01/29 00:28:05;;;;;;;;;53.00;42.00;;;;;-146.67;42.04;76295.13;5064569;28;61816;-80
2024/01/29 00:30:30;;;;;;;;;58.25;41.50;;;;;-146.67;42.11;76295.13;5081108;28;61758;-80
2024/01/29 00:32:55;;;;;;;;;41.00;32.50;;;;;-146.67;42.08;76301.09;5095609;27;61774;-80
2024/01/29 00:35:21;;;;;;;;;45.75;40.25;;;;;-146.67;41.90;76303.09;5103205;27;61837;-80
2024/01/29 00:37:46;;;;;;;;;50.50;37.50;;;;;-146.67;42.10;76313.09;5103151;27;62012;-80
2024/01/29 00:40:12;;;;;;;;;42.25;38.00;;;;;-146.67;42.09;76313.09;5102459;27;62656;-80
2024/01/29 00:42:37;;;;;;;;;51.75;41.25;;;;;-146.67;42.09;76303.09;5102582;27;61832;-80
2024/01/29 00:45:03;;;;;;;;;44.50;37.25;;;;;-146.67;42.21;76307.09;5085779;27;61961;-80
2024/01/29 00:47:28;;;;;;;;;44.50;39.25;;;;;-146.67;42.01;76301.09;5082639;28;61797;-80
2024/01/29 00:49:54;;;;;;;;;21.00;16.50;;;;;-146.67;41.92;76309.09;5080497;28;64566;-80
2024/01/29 00:52:19;;;;;;;;;36.50;33.25;;;;;-146.67;41.95;76317.09;5082232;28;61745;-80
2024/01/29 00:54:44;;;;;;;;;45.00;38.00;;;;;-146.67;42.15;76321.09;5082628;28;61862;-80
2024/01/29 00:57:11;;;;;;;;;47.00;38.75;;;;;-146.67;42.07;76329.06;5082793;28;61727;-80
2024/01/29 00:59:37;;;;;;;;;43.25;37.75;;;;;-146.67;42.21;76335.06;5081437;28;61834;-80
2024/01/29 01:02:02;;;;;;;;;48.00;39.75;;;;;-146.67;42.19;76333.06;5082277;28;61877;-80
2024/01/29 01:04:27;;;;;;;;;51.00;38.50;;;;;-146.67;42.07;76331.06;5082114;28;61799;-80
2024/01/29 01:06:53;;;;;;;;;49.75;38.75;;;;;-146.67;42.11;76331.06;5081404;28;62333;-80
2024/01/29 01:09:18;;;;;;;;;40.25;36.25;;;;;-146.67;41.89;76331.06;5081541;28;63026;-80
2024/01/29 01:11:44;;;;;;;;;42.75;36.50;;;;;-146.67;42.16;76345.06;5082100;28;61806;-80
2024/01/29 01:14:09;;;;;;;;;39.25;30.50;;;;;-146.67;42.16;76343.06;5080813;28;61842;-80
2024/01/29 01:16:34;;;;;;;;;42.25;35.50;;;;;-146.67;42.11;76339.06;5080890;28;62187;-80
2024/01/29 01:19:00;;;;;;;;;44.50;35.00;;;;;-146.67;42.16;76333.06;5080224;28;64575;-80
2024/01/29 01:21:25;;;;;;;;;40.75;32.75;;;;;-146.67;42.18;76333.06;5081950;28;61846;-80
2024/01/29 01:23:50;;;;;;;;;43.00;32.50;;;;;-146.67;42.35;76333.06;5082150;28;61853;-80
2024/01/29 01:26:16;;;;;;;;;43.25;36.25;;;;;-146.67;42.22;76335.06;5081135;28;62090;-80
2024/01/29 01:28:41;;;;;;;;;39.00;30.50;;;;;-146.67;42.37;76341.06;5081116;28;62314;-80
2024/01/29 01:31:06;;;;;;;;;37.75;33.75;;;;;-146.67;42.41;76337.06;5081960;28;61819;-80
2024/01/29 01:33:32;;;;;;;;;41.50;35.00;;;;;-146.67;42.09;76347.06;5081345;28;62386;-80
2024/01/29 01:35:57;;;;;;;;;45.00;38.00;;;;;-146.67;42.10;76343.06;5082314;28;62037;-80
2024/01/29 01:38:22;;;;;;;;;38.50;34.25;;;;;-146.67;42.17;76349.03;5081261;28;62784;-80
2024/01/29 01:40:48;;;;;;;;;47.25;37.00;;;;;-146.67;42.21;76347.06;5081597;28;61864;-78
2024/01/29 01:43:31;;;;;;;;;37.75;32.25;;;;;-146.67;42.24;76355.03;5084137;28;61886;-80
2024/01/29 01:46:06;;;;;;;;;45.00;32.75;;;;;-146.67;42.13;76359.03;5084124;28;62110;-80
2024/01/29 01:48:35;;;;;;;;;36.75;33.25;;;;;-146.67;42.13;76361.03;5066214;28;64807;-80
2024/01/29 01:51:03;;;;;;;;;39.50;33.25;;;;;-146.67;42.28;76357.03;5084928;28;61704;-80
2024/01/29 01:53:31;;;;;;;;;38.25;33.00;;;;;-146.67;42.10;76355.03;5083792;28;61990;-80
2024/01/29 01:55:58;;;;;;;;;35.75;33.25;;;;;-146.67;42.04;76365.03;5081388;28;61865;-80
2024/01/29 01:58:24;;;;;;;;;34.00;32.25;;;;;-146.67;42.09;76363.03;5081590;28;63005;-80
2024/01/29 02:00:50;;;;;;;;;42.50;35.75;;;;;-146.67;42.22;76357.03;5083143;28;61990;-80
2024/01/29 02:03:15;;;;;;;;;37.75;31.25;;;;;-146.67;42.46;76353.03;5083487;28;61866;-80
2024/01/29 02:05:41;;;;;;;;;33.00;29.50;;;;;-146.67;42.65;76353.03;5084786;28;61815;-80
2024/01/29 02:08:07;;;;;;;;;30.25;23.75;;;;;-146.67;42.67;76361.03;5083552;28;62946;-80
2024/01/29 02:10:33;;;;;;;;;36.25;32.25;;;;;-146.67;42.55;76353.03;5082482;28;61961;-80
2024/01/29 02:12:58;;;;;;;;;33.50;27.25;;;;;-146.67;42.32;76359.03;5083149;28;61970;-80
2024/01/29 02:15:24;;;;;;;;;36.50;30.75;;;;;-146.67;42.62;76355.03;5083358;28;61853;-80
2024/01/29 02:17:49;;;;;;;;;33.25;30.00;;;;;-146.67;42.61;76349.03;5081837;28;61818;-80
2024/01/29 02:20:16;;;;;;;;;34.25;28.75;;;;;-146.67;42.50;76345.06;5065198;28;61997;-80
2024/01/29 02:22:44;;;;;;;;;32.75;28.25;;;;;-146.67;42.77;76353.03;5083904;28;61816;-80
2024/01/29 02:25:10;;;;;;;;;15.75;14.75;;;;;-146.67;42.66;76355.03;5084772;28;61711;-80
2024/01/29 02:27:36;;;;;;;;;35.75;28.25;;;;;-146.67;42.65;76357.03;5084070;28;61710;-80
2024/01/29 02:30:02;;;;;;;;;28.25;26.75;;;;;-146.67;42.78;76359.03;5084895;28;62050;-80
2024/01/29 02:32:28;;;;;;;;;37.50;29.00;;;;;-146.67;42.77;76365.03;5084668;28;61912;-80
2024/01/29 02:34:53;;;;;;;;;32.75;28.75;;;;;-146.67;42.86;76361.03;5084840;28;61789;-80
2024/01/29 02:37:19;;;;;;;;;29.75;25.00;;;;;-146.67;42.79;76357.03;5083905;28;62145;-80
2024/01/29 02:39:45;;;;;;;;;23.75;21.75;;;;;-146.67;42.92;76357.03;5084059;28;61689;-80
2024/01/29 02:42:10;;;;;;;;;34.00;24.00;;;;;-146.67;43.04;76355.03;5084501;28;61804;-79
2024/01/29 02:44:36;;;;;;;;;34.00;26.75;;;;;-146.67;42.90;76359.03;5082954;28;62235;-80
2024/01/29 02:47:01;;;;;;;;;25.00;18.75;;;;;-146.67;43.20;76357.03;5065721;28;63848;-80
2024/01/29 02:49:27;;;;;;;;;20.75;17.75;;;;;-146.67;43.43;76347.06;5082924;28;61841;-80
2024/01/29 02:51:52;;;;;;;;;24.50;22.25;;;;;-146.67;43.71;76347.06;5065991;28;62624;-80
2024/01/29 02:54:17;;;;;;;;;23.00;17.25;;;;;-146.67;43.78;76331.06;5084119;28;61841;-80
2024/01/29 02:56:43;;;;;;;;;27.00;20.50;;;;;-146.67;43.64;76319.09;5083896;28;62482;-80
2024/01/29 02:59:08;;;;;;;;;17.00;13.25;;;;;-146.67;43.80;76311.09;5084258;28;62073;-80
2024/01/29 03:01:33;;;;;;;;;25.00;18.50;;;;;-146.67;43.72;76301.09;5084446;28;61930;-80
2024/01/29 03:03:59;;;;;;;;;20.75;13.75;;;;;-146.67;43.89;76297.13;5084133;28;61823;-80
2024/01/29 03:06:25;;;;;;;;;11.50;11.50;;;;;-146.67;43.97;76301.09;5083705;28;61973;-80
2024/01/29 03:08:50;;;;;;;;;19.75;15.50;;;;;-146.67;44.13;76291.13;5083737;28;62152;-80
2024/01/29 03:11:15;;;;;;;;;17.50;12.50;;;;;-146.67;44.01;76291.13;5065747;28;61767;-80
2024/01/29 03:13:41;;;;;;;;;13.00;10.00;;;;;-146.67;44.13;76285.13;5084040;28;62001;-80
2024/01/29 03:16:07;;;;;;;;;12.75;12.00;;;;;-146.67;44.32;76283.13;5083522;28;61863;-80
2024/01/29 03:18:32;;;;;;;;;16.00;15.50;;;;;-146.67;44.17;76269.16;5065605;28;62079;-80
2024/01/29 03:20:57;;;;;;;;;21.25;16.25;;;;;-146.67;44.06;76263.16;5082411;28;61858;-80
2024/01/29 03:23:23;;;;;;;;;18.25;12.75;;;;;-146.67;44.17;76265.16;5083979;28;61828;-80
2024/01/29 03:25:48;;;;;;;;;16.25;15.25;;;;;-146.67;44.46;76259.16;5083175;28;62015;-81
2024/01/29 03:28:13;;;;;;;;;13.00;12.00;;;;;-146.67;44.36;76243.19;5065725;28;61790;-80
2024/01/29 03:30:39;;;;;;;;;13.50;12.50;;;;;-146.67;44.17;76229.22;5082619;28;61996;-80
2024/01/29 03:33:04;;;;;;;;;19.00;14.75;;;;;-146.67;44.44;76223.22;5082196;28;61858;-80
2024/01/29 03:35:29;;;;;;;;;10.00;10.00;;;;;-146.67;44.26;76217.22;5083287;28;62888;-80
2024/01/29 03:37:55;;;;;;;;;17.25;14.50;;;;;-146.67;44.15;76209.22;5081871;28;61995;-80
2024/01/29 03:40:20;;;;;;;;;15.75;13.00;;;;;-146.67;44.02;76209.22;5065476;28;61888;-80
2024/01/29 03:42:46;;;;;;;;;13.00;11.50;;;;;-146.67;43.86;76207.25;5083527;28;62102;-80
2024/01/29 03:45:11;;;;;;;;;22.00;14.75;;;;;-146.67;43.93;76201.25;5082671;28;61915;-80
2024/01/29 03:47:36;;;;;;;;;16.00;16.00;;;;;-146.67;43.89;76193.25;5083524;28;62028;-79
2024/01/29 03:50:04;;;;;;;;;16.25;13.00;;;;;-146.67;43.88;76197.25;5083571;28;62076;-80
2024/01/29 03:52:29;;;;;;;;;16.00;15.50;;;;;-146.67;43.72;76197.25;5083495;28;61957;-80
2024/01/29 03:54:54;;;;;;;;;20.50;18.25;;;;;-146.67;43.55;76191.25;5082675;28;62802;-80
2024/01/29 03:57:20;;;;;;;;;38.00;33.50;;;;;-146.67;42.89;76195.25;5064812;28;61970;-80
2024/01/29 03:59:45;;;;;;;;;37.50;33.75;;;;;-146.67;43.17;76203.25;5083372;28;61938;-80
2024/01/29 04:02:10;;;;;;;;;37.50;31.50;;;;;-146.67;42.55;76215.22;5083545;28;61713;-80
2024/01/29 04:04:36;;;;;;;;;45.25;39.75;;;;;-146.67;42.46;76231.22;5081522;28;61886;-80
2024/01/29 04:07:01;;;;;;;;;44.50;33.50;;;;;-146.67;42.55;76243.19;5082320;28;61799;-80
2024/01/29 04:09:26;;;;;;;;;46.75;38.75;;;;;-146.67;42.63;76265.16;5081980;28;61910;-80
2024/01/29 04:11:52;;;;;;;;;41.25;37.50;;;;;-146.67;42.55;76261.16;5082976;28;61718;-80
2024/01/29 04:14:18;;;;;;;;;42.25;37.50;;;;;-146.67;42.68;76263.16;5082673;28;62650;-80
2024/01/29 04:16:46;;;;;;;;;46.00;36.25;;;;;-146.67;42.68;76265.16;5083248;28;61696;-80
2024/01/29 04:19:12;;;;;;;;;37.00;30.25;;;;;-146.67;42.72;76255.16;5081543;28;61976;-80
2024/01/29 04:21:44;;;;;;;;;40.75;32.75;;;;;-146.67;42.69;76265.16;5082753;28;61827;-80
2024/01/29 04:24:13;;;;;;;;;45.50;34.25;;;;;-146.67;42.58;76269.16;5082392;28;61875;-80
2024/01/29 04:26:42;;;;;;;;;34.75;30.00;;;;;-146.67;42.74;76277.16;5083084;28;61787;-80
2024/01/29 04:29:08;;;;;;;;;38.00;30.50;;;;;-146.67;42.61;76281.13;5082621;28;61919;-80
2024/01/29 04:31:34;;;;;;;;;34.75;29.75;;;;;-146.67;43.09;76315.09;5083231;28;61918;-80
2024/01/29 04:34:00;;;;;;;;;38.75;32.50;;;;;-146.67;42.98;76319.09;5082207;28;62318;-80
2024/01/29 04:36:25;;;;;;;;;43.00;35.75;;;;;-146.67;42.79;76309.09;5082527;28;61778;-80
2024/01/29 04:38:51;;;;;;;;;43.25;37.50;;;;;-146.67;42.60;76309.09;5082886;28;61792;-80
2024/01/29 04:41:18;;;;;;;;;39.00;34.50;;;;;-146.67;42.55;76307.09;5082642;28;61875;-80
2024/01/29 04:43:43;;;;;;;;;45.75;34.75;;;;;-146.67;42.72;76307.09;5077119;28;64236;-80
2024/01/29 04:46:09;;;;;;;;;43.25;33.75;;;;;-146.67;42.63;76313.09;5060384;28;61908;-80
2024/01/29 04:48:34;;;;;;;;;32.50;29.00;;;;;-146.67;42.63;76313.09;5062334;28;61940;-80
2024/01/29 04:51:04;;;;;;;;;41.50;31.00;;;;;-146.67;42.74;76311.09;5060739;28;62088;-80
2024/01/29 04:53:30;;;;;;;;;39.50;31.75;;;;;-146.67;42.71;76315.09;5061948;28;62943;-80
2024/01/29 04:55:55;;;;;;;;;38.50;29.25;;;;;-146.67;42.71;76305.09;5062258;28;62384;-80
2024/01/29 04:58:20;;;;;;;;;38.25;29.50;;;;;-146.67;42.72;76309.09;5061024;28;61804;-80
2024/01/29 05:00:46;;;;;;;;;40.00;33.50;;;;;-146.67;42.87;76305.09;5062585;28;61874;-79
2024/01/29 05:03:11;;;;;;;;;35.00;29.75;;;;;-146.67;42.61;76307.09;5077319;28;62715;-80
2024/01/29 05:05:37;;;;;;;;;28.50;26.25;;;;;-146.67;42.47;76309.09;5080882;28;61887;-80
2024/01/29 05:08:02;;;;;;;;;37.25;29.50;;;;;-146.67;42.53;76315.09;5082727;27;61941;-80
2024/01/29 05:10:28;;;;;;;;;42.00;30.75;;;;;-146.67;42.64;76319.09;5082619;28;61778;-80
2024/01/29 05:12:54;;;;;;;;;29.00;24.75;;;;;-146.67;42.70;76323.09;5081653;27;62026;-80
2024/01/29 05:15:19;;;;;;;;;31.75;21.50;;;;;-146.67;42.80;76327.06;5064279;28;61891;-80
2024/01/29 05:17:44;;;;;;;;;27.25;26.25;;;;;-146.67;42.64;76333.06;5065737;28;61738;-80
2024/01/29 05:20:11;;;;;;;;;29.25;25.00;;;;;-146.67;42.85;76333.06;5065682;28;61783;-80
2024/01/29 05:22:36;;;;;;;;;34.25;27.50;;;;;-146.67;42.87;76343.06;5065016;28;62829;-80
2024/01/29 05:25:02;;;;;;;;;35.50;28.25;;;;;-146.67;42.89;76345.06;5065736;28;61815;-80
2024/01/29 05:27:27;;;;;;;;;21.25;21.25;;;;;-146.67;42.94;76341.06;5083119;28;62135;-80
2024/01/29 05:29:53;;;;;;;;;33.50;27.00;;;;;-146.67;42.97;76333.06;5084918;28;62055;-80
2024/01/29 05:32:19;;;;;;;;;29.25;26.50;;;;;-146.67;42.99;76345.06;5085316;27;63130;-80
2024/01/29 05:34:45;;;;;;;;;44.50;30.25;;;;;-146.67;43.05;76341.06;5084157;28;62347;-80
2024/01/29 05:37:10;;;;;;;;;29.50;24.75;;;;;-146.67;43.04;76347.06;5069190;28;61893;-80
2024/01/29 05:39:36;;;;;;;;;34.25;30.00;;;;;-146.67;42.88;76345.06;5065669;28;62276;-80
2024/01/29 05:42:01;;;;;;;;;29.50;28.75;;;;;-146.67;42.89;76343.06;5063334;28;61877;-80
2024/01/29 05:44:26;;;;;;;;;34.75;28.25;;;;;-146.67;42.83;76341.06;5080666;27;61842;-80
2024/01/29 05:46:52;;;;;;;;;23.25;21.50;;;;;-146.67;42.77;76343.06;5065848;28;62348;-80
2024/01/29 05:49:18;;;;;;;;;32.75;26.00;;;;;-146.67;42.78;76341.06;5063697;28;62219;-80
2024/01/29 05:51:44;;;;;;;;;31.25;25.25;;;;;-146.67;42.85;76343.06;5063345;28;64546;-80
2024/01/29 05:54:09;;;;;;;;;27.00;22.00;;;;;-146.67;42.71;76345.06;5044464;28;62443;-79
2024/01/29 05:56:34;;;;;;;;;26.25;23.75;;;;;-146.67;42.76;76349.03;5041592;28;62217;-80
2024/01/29 05:59:00;;;;;;;;;32.00;26.25;;;;;-146.67;42.82;76353.03;5042962;28;61938;-80
2024/01/29 06:01:25;;;;;;;;;25.00;19.50;;;;;-146.67;42.66;76355.03;5042679;28;61815;-80
2024/01/29 06:03:50;;;;;;;;;27.25;24.00;;;;;-146.67;42.73;76359.03;5041567;28;61856;-80
2024/01/29 06:06:16;;;;;;;;;28.75;23.00;;;;;-146.67;42.69;76363.03;5045244;28;61863;-80
2024/01/29 06:08:41;;;;;;;;;31.00;24.25;;;;;-146.67;42.73;76361.03;5064679;28;61759;-80
2024/01/29 06:11:15;;;;;;;;;32.25;26.25;;;;;-146.67;42.88;76363.03;5064000;28;61920;-80
2024/01/29 06:13:41;;;;;;;;;27.25;23.50;;;;;-146.67;43.05;76365.03;5061263;28;62066;-80
2024/01/29 06:16:06;;;;;;;;;24.50;20.50;;;;;-146.67;43.36;76379.00;5061903;28;62127;-80
2024/01/29 06:18:31;;;;;;;;;25.25;21.50;;;;;-146.67;43.30;76381.00;5061228;28;62206;-80
2024/01/29 06:20:57;;;;;;;;;31.50;24.00;;;;;-146.67;43.42;76377.00;5074524;28;64764;-79
2024/01/29 06:23:22;;;;;;;;;28.50;22.50;;;;;-146.67;43.68;76379.00;5083511;27;61837;-80
2024/01/29 06:25:47;;;;;;;;;31.00;22.75;;;;;-146.67;43.34;76369.03;5083749;27;61782;-80
2024/01/29 06:28:13;;;;;;;;;31.50;25.00;;;;;-146.67;43.28;76361.03;5082870;28;61665;-80
2024/01/29 06:30:39;;;;;;;;;30.75;25.50;;;;;-146.67;43.22;76355.03;5083917;27;61751;-80
2024/01/29 06:33:05;;;;;;;;;31.00;26.00;;;;;-146.67;43.26;76353.03;5083037;28;62329;-80
2024/01/29 06:35:31;;;;;;;;;29.00;22.50;;;;;-146.67;43.27;76353.03;5084987;28;61746;-79
2024/01/29 06:37:56;;;;;;;;;28.25;25.25;;;;;-146.67;43.21;76349.03;5085148;27;62194;-80
2024/01/29 06:40:27;;;;;;;;;29.50;25.75;;;;;-146.67;43.11;76347.06;5084459;27;62759;-80
2024/01/29 06:42:53;;;;;;;;;25.00;23.00;;;;;-146.67;43.28;76353.03;5091199;27;61884;-79
2024/01/29 06:45:19;;;;;;;;;30.00;24.75;;;;;-146.67;43.53;76357.03;5067234;28;61881;-79
2024/01/29 06:47:44;;;;;;;;;23.25;20.50;;;;;-146.67;43.38;76367.03;5084345;28;61838;-81
2024/01/29 06:50:09;;;;;;;;;26.00;20.25;;;;;-146.67;43.54;76375.00;5083986;28;61966;-81
2024/01/29 06:52:41;;;;;;;;;26.50;20.25;;;;;-146.67;43.59;76379.00;5090003;27;61979;-80
2024/01/29 06:55:07;;;;;;;;;22.75;22.25;;;;;-146.67;43.52;76373.00;5067936;27;61913;-79
2024/01/29 06:57:32;;;;;;;;;25.75;19.25;;;;;-146.67;43.59;76379.00;5074414;28;61976;-79
2024/01/29 06:59:58;;;;;;;;;21.25;19.25;;;;;-146.67;43.52;76369.03;5084289;27;62189;-79
2024/01/29 07:02:27;;;;;;;;;27.25;23.75;;;;;-146.67;43.42;76363.03;5082199;28;61974;-80
2024/01/29 07:04:54;;;;;;;;;22.25;20.75;;;;;-146.67;43.55;76359.03;5065310;28;62432;-80
2024/01/29 07:07:19;;;;;;;;;24.25;19.00;;;;;-146.67;43.42;76359.03;5084357;28;61720;-79
2024/01/29 07:09:45;;;;;;;;;28.75;20.25;;;;;-146.67;43.47;76357.03;5100910;27;62642;-79
2024/01/29 07:12:10;;;;;;;;;26.00;24.25;;;;;-146.67;43.42;76345.06;5104020;27;61802;-79
2024/01/29 07:14:35;;;;;;;;;21.75;19.75;;;;;-146.67;43.39;76371.03;5103935;27;61930;-79
2024/01/29 07:17:01;;;;;;;;;26.75;21.25;;;;;-146.67;43.44;76367.03;5104506;27;61885;-80
2024/01/29 07:19:27;;;;;;;;;21.25;19.25;;;;;-146.67;43.55;76363.03;5086237;27;62015;-79
2024/01/29 07:21:53;;;;;;;;;26.50;20.75;;;;;-146.67;43.45;76359.03;5083791;28;61822;-81
2024/01/29 07:24:19;;;;;;;;;22.50;19.75;;;;;-146.67;43.37;76363.03;5083248;28;61960;-79
2024/01/29 07:26:44;;;;;;;;;18.00;15.25;;;;;-146.67;43.45;76363.03;5085967;27;62235;-78
2024/01/29 07:29:09;;;;;;;;;18.25;17.75;;;;;-146.67;43.42;76365.03;5081633;27;62860;-79
2024/01/29 07:31:35;;;;;;;;;27.00;18.50;;;;;-146.67;43.21;76359.03;5082263;27;62042;-78
2024/01/29 07:34:00;;;;;;;;;21.25;16.50;;;;;-146.67;43.40;76367.03;5083111;27;61804;-79
2024/01/29 07:36:27;;;;;;;;;22.50;19.00;;;;;-146.67;43.46;76377.00;5083802;27;61927;-79
2024/01/29 07:38:53;;;;;;;;;20.75;19.75;;;;;-146.67;43.60;76373.00;5061970;28;63679;-79
2024/01/29 07:41:19;;;;;;;;;15.50;14.75;;;;;-146.67;43.60;76371.03;5075869;27;62144;-78
2024/01/29 07:43:44;;;;;;;;;24.25;19.25;;;;;-146.67;43.50;76367.03;5057835;28;61934;-79
2024/01/29 07:46:12;;;;;;;;;33.25;24.75;;;;;-146.67;43.30;76369.03;5059275;28;61827;-79
2024/01/29 07:48:38;;;;;;;;;19.25;16.50;;;;;-146.67;43.25;76351.03;5055196;28;63315;-78
2024/01/29 07:51:03;;;;;;;;;23.75;20.25;;;;;-146.67;43.25;76343.06;5061710;28;61768;-78
2024/01/29 07:53:28;;;;;;;;;22.00;20.00;;;;;-146.67;43.30;76343.06;5062222;28;61841;-80
2024/01/29 07:55:54;;;;;;;;;24.00;20.50;;;;;-146.67;43.20;76331.06;5062524;27;61964;-79
2024/01/29 07:58:20;;;;;;;;;23.75;17.25;;;;;-146.67;43.09;76331.06;5060067;28;64555;-79
2024/01/29 08:00:46;;;;;;;;;22.50;19.75;;;;;-146.67;43.14;76335.06;5062803;28;61914;-79
2024/01/29 08:03:11;;;;;;;;;21.50;20.25;;;;;-146.67;43.09;76321.09;5076639;28;62251;-80
2024/01/29 08:05:36;;;;;;;;;20.00;16.75;;;;;-146.67;43.14;76323.09;5062527;28;61898;-79
2024/01/29 08:08:02;;;;;;;;;24.00;19.25;;;;;-146.67;42.99;76307.09;5062177;28;61905;-79
2024/01/29 08:10:27;;;;;;;;;19.75;19.75;;;;;-146.67;42.86;76291.13;5060619;28;62205;-79
2024/01/29 08:12:53;;;;;;;;;23.25;20.75;;;;;-146.67;42.71;76279.13;5062205;28;62260;-80
2024/01/29 08:15:18;;;;;;;;;20.00;19.00;;;;;-146.67;42.74;76269.16;5063150;28;61894;-80
2024/01/29 08:17:44;;;;;;;;;21.75;18.50;;;;;-146.67;42.63;76257.16;5060917;28;65051;-79
2024/01/29 08:20:09;;;;;;;;;22.50;19.75;;;;;-146.67;42.54;76245.19;5062343;28;62485;-79
2024/01/29 08:22:35;;;;;;;;;25.25;20.50;;;;;-146.67;42.47;76235.19;5061452;28;61990;-79
2024/01/29 08:25:00;;;;;;;;;20.50;16.75;;;;;-146.67;42.35;76217.22;5062655;28;62108;-79
2024/01/29 08:27:29;;;;;;;;;25.75;18.00;;;;;-146.67;42.32;76203.25;5078568;28;61846;-79
2024/01/29 08:29:54;;;;;;;;;21.50;20.00;;;;;-146.67;42.31;76193.25;5083211;27;61939;-79
2024/01/29 08:32:21;;;;;;;;;21.50;20.00;;;;;-146.67;42.11;76183.28;5072602;28;61818;-80
2024/01/29 08:34:47;;;;;;;;;28.75;28.50;;;;;-146.67;42.07;76167.28;5079272;27;61981;-80
2024/01/29 08:37:13;;;;;;;;;25.75;22.00;;;;;-146.67;41.89;76149.31;5063986;28;61881;-80
2024/01/29 08:39:38;;;;;;;;;26.50;22.25;;;;;-146.67;41.89;76143.31;5061292;28;61842;-80
2024/01/29 08:42:06;;;;;;;;;20.75;17.75;;;;;-146.67;41.85;76133.34;5076420;28;61968;-79
2024/01/29 08:44:31;;;;;;;;;22.50;18.75;;;;;-146.67;41.86;76141.31;5082637;28;62436;-80
2024/01/29 08:46:56;;;;;;;;;29.25;17.50;;;;;-146.67;41.65;76123.34;5081657;28;61941;-80
2024/01/29 08:49:22;;;;;;;;;19.75;17.00;;;;;-146.67;41.75;76113.38;5064030;28;61741;-80
2024/01/29 08:51:47;;;;;;;;;19.00;18.00;;;;;-146.67;41.68;76095.38;5063821;28;61733;-79
2024/01/29 08:54:12;;;;;;;;;22.25;22.00;;;;;-146.67;41.59;76089.41;5064552;28;61748;-80
2024/01/29 08:56:39;;;;;;;;;23.50;21.00;;;;;-146.67;41.29;76073.41;5081718;28;61709;-80
2024/01/29 08:59:06;;;;;;;;;23.50;23.25;;;;;-146.67;41.29;76061.44;5081098;28;62153;-80
2024/01/29 09:01:31;;;;;;;;;20.25;18.75;;;;;-146.67;41.26;76049.44;5082652;28;61973;-80
2024/01/29 09:03:56;;;;;;;;;19.25;17.25;;;;;-146.67;41.27;76043.47;5064144;28;61999;-80
2024/01/29 09:06:22;;;;;;;;;19.50;16.00;;;;;-146.67;41.24;76045.47;5080672;28;61750;-79
2024/01/29 09:08:47;;;;;;;;;21.00;18.50;;;;;-146.67;41.29;76049.44;5050560;28;62068;-79
2024/01/29 09:11:12;;;;;;;;;27.25;23.75;;;;;-146.67;41.31;76049.44;5061582;28;62052;-80
2024/01/29 09:13:39;;;;;;;;;34.50;26.75;;;;;-146.67;41.27;76045.47;5061731;28;62144;-80
2024/01/29 09:16:04;;;;;;;;;23.50;18.00;;;;;-146.67;41.33;76043.47;5043167;28;65058;-80
2024/01/29 09:18:30;;;;;;;;;36.25;25.75;;;;;-146.67;41.34;76045.47;5061452;28;62028;-80
2024/01/29 09:20:55;;;;;;;;;29.75;22.25;;;;;-146.67;41.39;76035.47;5082021;28;61912;-80
2024/01/29 09:23:21;;;;;;;;;21.25;18.00;;;;;-146.67;41.48;76037.47;5082298;28;61835;-80
2024/01/29 09:25:46;;;;;;;;;19.00;16.50;;;;;-146.67;41.37;76021.50;5081359;28;61741;-78
2024/01/29 09:28:12;;;;;;;;;20.50;17.25;;;;;-146.67;41.32;76005.50;5082107;28;61842;-81
2024/01/29 09:30:37;;;;;;;;;30.50;22.25;;;;;-146.67;41.22;76003.50;5082006;28;62419;-80
2024/01/29 09:33:03;;;;;;;;;19.00;17.00;;;;;-146.67;41.26;76001.53;5080792;28;61997;-79
2024/01/29 09:35:28;;;;;;;;;35.75;26.25;;;;;-146.67;41.27;76003.50;5062931;28;63604;-80
2024/01/29 09:37:54;;;;;;;;;21.50;18.25;;;;;-146.67;41.23;75993.53;5077469;28;61816;-80
2024/01/29 09:40:20;;;;;;;;;23.00;18.25;;;;;-146.67;41.29;76009.50;5070287;28;61929;-79
2024/01/29 09:42:50;;;;;;;;;18.00;14.00;;;;;-146.67;41.18;76003.50;5069852;28;61668;-79
2024/01/29 09:45:24;;;;;;;;;13.25;12.75;;;;;-146.67;41.30;76005.50;5053536;28;63582;-80
2024/01/29 09:47:52;;;;;;;;;16.75;16.00;;;;;-146.67;41.38;75999.53;5070738;28;62051;-79
2024/01/29 09:50:18;;;;;;;;;15.50;12.50;;;;;-146.67;41.32;75991.53;5066641;28;62032;-79
2024/01/29 09:52:54;;;;;;;;;14.75;11.00;;;;;-146.67;41.28;75981.53;5071944;28;61827;-79
2024/01/29 09:55:22;;;;;;;;;13.00;10.00;;;;;-146.67;41.21;75973.56;5051392;28;63602;-80
2024/01/29 09:57:47;;;;;;;;;15.00;11.75;;;;;-146.67;41.20;75957.59;5068031;28;62402;-79
2024/01/29 10:00:13;;;;;;;;;15.75;14.25;;;;;-146.67;41.32;75953.59;5061628;28;61845;-80
2024/01/29 10:02:42;;;;;;;;;12.50;9.75;;;;;-146.67;41.16;75957.59;5061748;28;61875;-79
2024/01/29 10:05:11;;;;;;;;;9.75;9.75;;;;;-146.67;41.17;75953.59;5062732;28;63626;-79
2024/01/29 10:07:37;;;;;;;;;12.00;10.00;;;;;-146.67;41.08;75949.59;5064621;28;61872;-79
2024/01/29 10:10:09;;;;;;;;;12.50;11.50;;;;;-146.67;40.92;75951.59;5064800;28;62062;-80
2024/01/29 10:12:34;;;;;;;;;10.25;9.25;;;;;-146.67;40.96;75935.63;5064331;28;61782;-79
2024/01/29 10:15:00;;;;;;;;;8.50;5.00;;;;;-146.67;41.06;75925.63;5081154;28;63460;-82
2024/01/29 10:17:25;;;;;;;;;9.00;7.75;;;;;-146.67;40.81;75899.66;5066476;28;61855;-80
2024/01/29 10:19:51;;;;;;;;;10.25;9.50;;;;;-146.67;40.80;75887.69;5066654;28;62348;-80
2024/01/29 10:22:16;;;;;;;;;14.50;10.00;;;;;-146.67;40.52;75887.69;5066298;28;61836;-80
2024/01/29 10:24:42;;;;;;;;;20.25;9.25;;;;;-146.67;40.50;75877.69;5064013;28;63666;-80
2024/01/29 10:27:08;;;;;;;;;12.50;10.00;;;;;-146.67;40.41;75875.69;5084842;28;61913;-79
2024/01/29 10:29:46;;;;;;;;;18.00;9.75;;;;;-146.67;40.54;75859.72;5066126;28;61982;-80
2024/01/29 10:32:11;;;;;;;;;17.00;13.25;;;;;-146.67;40.37;75859.72;5085119;28;61720;-79
2024/01/29 10:34:36;;;;;;;;;9.50;9.50;;;;;-146.67;40.34;75847.75;5065463;28;63652;-77
2024/01/29 10:37:05;;;;;;;;;9.75;8.75;;;;;-146.67;40.35;75839.75;5084893;28;61800;-80
2024/01/29 10:39:34;;;;;;;;;14.25;10.00;;;;;-146.67;40.36;75833.75;5066095;28;62239;-79
2024/01/29 10:42:01;;;;;;;;;10.75;10.50;;;;;-146.67;40.21;75815.78;5084328;28;62026;-80
2024/01/29 10:44:30;;;;;;;;;14.50;11.00;;;;;-146.67;40.11;75809.78;5083404;28;62923;-79
2024/01/29 10:46:59;;;;;;;;;14.25;8.75;;;;;-146.67;40.07;75789.81;5053757;28;61996;-80
2024/01/29 10:49:25;;;;;;;;;11.00;10.25;;;;;-146.67;40.01;75795.81;5067027;28;61953;-79
2024/01/29 10:51:53;;;;;;;;;13.00;13.00;;;;;-146.67;39.85;75787.81;5065962;28;61714;-78
2024/01/29 10:54:24;;;;;;;;;14.50;13.00;;;;;-146.67;40.01;75781.84;5074567;28;61864;-79
2024/01/29 10:56:51;;;;;;;;;14.50;11.75;;;;;-146.67;39.93;75779.84;5067985;28;61893;-81